sensor_id;sensor_type;location;lat;lon;timestamp;P1;P2;P0
64138;PMS5003;50435;43.700;-79.318;2023-12-22T00:02:22;0;0;
64138;PMS5003;50435;43.700;-79.318;2023-12-22T00:04:50;0;0;
64138;PMS5003;50435;43.700;-79.318;2023-12-22T00:07:17;0;0;
64138;PMS5003;50435;43.700;-79.318;2023-12-22T00:09:45;0;0;
64138;PMS5003;50435;43.700;-79.318;2023-12-22T00:12:12;0;0;
64138;PMS5003;50435;43.700;-79.318;2023-12-22T00:14:39;0;0;
64138;PMS5003;50435;43.700;-79.318;2023-12-22T00:17:07;0;0;
64138;PMS5003;50435;43.700;-79.318;2023-12-22T00:19:35;2;2;
64138;PMS5003;50435;43.700;-79.318;2023-12-22T00:22:02;1;1;
64138;PMS5003;50435;43.700;-79.318;2023-12-22T00:24:29;1;1;
64138;PMS5003;50435;43.700;-79.318;2023-12-22T00:26:57;2;2;
64138;PMS5003;50435;43.700;-79.318;2023-12-22T00:29:24;1;1;
64138;PMS5003;50435;43.700;-79.318;2023-12-22T00:31:51;3;3;
64138;PMS5003;50435;43.700;-79.318;2023-12-22T00:34:19;1;1;
64138;PMS5003;50435;43.700;-79.318;2023-12-22T00:36:48;1;1;
64138;PMS5003;50435;43.700;-79.318;2023-12-22T00:39:15;1;1;
64138;PMS5003;50435;43.700;-79.318;2023-12-22T00:41:43;1;1;
64138;PMS5003;50435;43.700;-79.318;2023-12-22T00:44:10;2;2;
64138;PMS5003;50435;43.700;-79.318;2023-12-22T00:46:38;1;1;
64138;PMS5003;50435;43.700;-79.318;2023-12-22T00:49:05;1;1;
64138;PMS5003;50435;43.700;-79.318;2023-12-22T00:51:33;2;0;
64138;PMS5003;50435;43.700;-79.318;2023-12-22T00:54:00;3;3;
64138;PMS5003;50435;43.700;-79.318;2023-12-22T00:56:27;0;0;
64138;PMS5003;50435;43.700;-79.318;2023-12-22T00:58:54;0;0;
64138;PMS5003;50435;43.700;-79.318;2023-12-22T01:01:22;1;1;
64138;PMS5003;50435;43.700;-79.318;2023-12-22T01:03:49;1;1;
64138;PMS5003;50435;43.700;-79.318;2023-12-22T01:06:17;1;1;
64138;PMS5003;50435;43.700;-79.318;2023-12-22T01:08:44;1;1;
64138;PMS5003;50435;43.700;-79.318;2023-12-22T01:11:12;3;1;
64138;PMS5003;50435;43.700;-79.318;2023-12-22T01:13:39;2;2;
64138;PMS5003;50435;43.700;-79.318;2023-12-22T01:16:06;1;1;
64138;PMS5003;50435;43.700;-79.318;2023-12-22T01:18:34;1;1;
64138;PMS5003;50435;43.700;-79.318;2023-12-22T01:21:02;2;2;
64138;PMS5003;50435;43.700;-79.318;2023-12-22T01:23:29;1;1;
64138;PMS5003;50435;43.700;-79.318;2023-12-22T01:25:57;1;1;
64138;PMS5003;50435;43.700;-79.318;2023-12-22T01:28:24;1;1;
64138;PMS5003;50435;43.700;-79.318;2023-12-22T01:30:51;1;1;
64138;PMS5003;50435;43.700;-79.318;2023-12-22T01:33:19;1;1;
64138;PMS5003;50435;43.700;-79.318;2023-12-22T01:35:46;1;1;
64138;PMS5003;50435;43.700;-79.318;2023-12-22T01:38:14;1;1;
64138;PMS5003;50435;43.700;-79.318;2023-12-22T01:40:41;2;2;
64138;PMS5003;50435;43.700;-79.318;2023-12-22T01:43:09;3;2;
64138;PMS5003;50435;43.700;-79.318;2023-12-22T01:45:37;2;2;
64138;PMS5003;50435;43.700;-79.318;2023-12-22T01:48:04;2;1;
64138;PMS5003;50435;43.700;-79.318;2023-12-22T01:50:32;1;1;
64138;PMS5003;50435;43.700;-79.318;2023-12-22T01:52:59;1;1;
64138;PMS5003;50435;43.700;-79.318;2023-12-22T01:55:27;3;2;
64138;PMS5003;50435;43.700;-79.318;2023-12-22T01:57:55;1;1;
64138;PMS5003;50435;43.700;-79.318;2023-12-22T02:00:23;1;1;
64138;PMS5003;50435;43.700;-79.318;2023-12-22T02:02:51;1;1;
64138;PMS5003;50435;43.700;-79.318;2023-12-22T02:05:19;2;2;
64138;PMS5003;50435;43.700;-79.318;2023-12-22T02:07:47;6;2;
64138;PMS5003;50435;43.700;-79.318;2023-12-22T02:10:14;2;1;
64138;PMS5003;50435;43.700;-79.318;2023-12-22T02:12:42;2;2;
64138;PMS5003;50435;43.700;-79.318;2023-12-22T02:15:09;2;1;
64138;PMS5003;50435;43.700;-79.318;2023-12-22T02:17:40;2;2;
64138;PMS5003;50435;43.700;-79.318;2023-12-22T02:20:13;1;1;
64138;PMS5003;50435;43.700;-79.318;2023-12-22T02:22:42;1;1;
64138;PMS5003;50435;43.700;-79.318;2023-12-22T02:25:09;1;1;
64138;PMS5003;50435;43.700;-79.318;2023-12-22T02:27:39;2;2;
64138;PMS5003;50435;43.700;-79.318;2023-12-22T02:30:12;3;1;
64138;PMS5003;50435;43.700;-79.318;2023-12-22T02:32:47;3;2;
64138;PMS5003;50435;43.700;-79.318;2023-12-22T02:35:17;3;3;
64138;PMS5003;50435;43.700;-79.318;2023-12-22T02:37:47;1;1;
64138;PMS5003;50435;43.700;-79.318;2023-12-22T02:40:15;2;2;
64138;PMS5003;50435;43.700;-79.318;2023-12-22T02:42:44;1;1;
64138;PMS5003;50435;43.700;-79.318;2023-12-22T02:45:13;1;1;
64138;PMS5003;50435;43.700;-79.318;2023-12-22T02:47:42;1;1;
64138;PMS5003;50435;43.700;-79.318;2023-12-22T02:50:10;5;3;
64138;PMS5003;50435;43.700;-79.318;2023-12-22T02:52:39;1;1;
64138;PMS5003;50435;43.700;-79.318;2023-12-22T02:55:07;2;2;
64138;PMS5003;50435;43.700;-79.318;2023-12-22T02:57:36;2;2;
64138;PMS5003;50435;43.700;-79.318;2023-12-22T03:00:04;2;2;
64138;PMS5003;50435;43.700;-79.318;2023-12-22T03:02:32;2;2;
64138;PMS5003;50435;43.700;-79.318;2023-12-22T03:04:59;2;2;
64138;PMS5003;50435;43.700;-79.318;2023-12-22T03:07:27;5;3;
64138;PMS5003;50435;43.700;-79.318;2023-12-22T03:09:54;1;1;
64138;PMS5003;50435;43.700;-79.318;2023-12-22T03:12:22;2;2;
64138;PMS5003;50435;43.700;-79.318;2023-12-22T03:14:49;0;0;
64138;PMS5003;50435;43.700;-79.318;2023-12-22T03:17:17;1;1;
64138;PMS5003;50435;43.700;-79.318;2023-12-22T03:19:44;3;3;
64138;PMS5003;50435;43.700;-79.318;2023-12-22T03:22:12;5;2;
64138;PMS5003;50435;43.700;-79.318;2023-12-22T03:24:39;2;1;
64138;PMS5003;50435;43.700;-79.318;2023-12-22T03:27:06;2;2;
64138;PMS5003;50435;43.700;-79.318;2023-12-22T03:29:34;2;2;
64138;PMS5003;50435;43.700;-79.318;2023-12-22T03:32:01;3;3;
64138;PMS5003;50435;43.700;-79.318;2023-12-22T03:34:29;6;3;
64138;PMS5003;50435;43.700;-79.318;2023-12-22T03:36:56;5;3;
64138;PMS5003;50435;43.700;-79.318;2023-12-22T03:39:23;2;2;
64138;PMS5003;50435;43.700;-79.318;2023-12-22T03:41:51;2;2;
64138;PMS5003;50435;43.700;-79.318;2023-12-22T03:44:18;2;2;
64138;PMS5003;50435;43.700;-79.318;2023-12-22T03:46:46;2;2;
64138;PMS5003;50435;43.700;-79.318;2023-12-22T03:49:14;1;1;
64138;PMS5003;50435;43.700;-79.318;2023-12-22T03:51:41;2;2;
64138;PMS5003;50435;43.700;-79.318;2023-12-22T03:54:08;2;2;
64138;PMS5003;50435;43.700;-79.318;2023-12-22T03:56:36;1;1;
64138;PMS5003;50435;43.700;-79.318;2023-12-22T03:59:03;3;3;
64138;PMS5003;50435;43.700;-79.318;2023-12-22T04:01:31;6;6;
64138;PMS5003;50435;43.700;-79.318;2023-12-22T04:03:59;3;2;
64138;PMS5003;50435;43.700;-79.318;2023-12-22T04:06:26;1;1;
64138;PMS5003;50435;43.700;-79.318;2023-12-22T04:08:54;3;3;
64138;PMS5003;50435;43.700;-79.318;2023-12-22T04:11:21;2;2;
64138;PMS5003;50435;43.700;-79.318;2023-12-22T04:13:48;2;2;
64138;PMS5003;50435;43.700;-79.318;2023-12-22T04:16:15;5;1;
64138;PMS5003;50435;43.700;-79.318;2023-12-22T04:18:43;1;1;
64138;PMS5003;50435;43.700;-79.318;2023-12-22T04:21:10;1;1;
64138;PMS5003;50435;43.700;-79.318;2023-12-22T04:23:38;2;2;
64138;PMS5003;50435;43.700;-79.318;2023-12-22T04:26:05;1;1;
64138;PMS5003;50435;43.700;-79.318;2023-12-22T04:28:32;2;2;
64138;PMS5003;50435;43.700;-79.318;2023-12-22T04:31:00;1;1;
64138;PMS5003;50435;43.700;-79.318;2023-12-22T04:33:27;3;1;
64138;PMS5003;50435;43.700;-79.318;2023-12-22T04:35:55;1;1;
64138;PMS5003;50435;43.700;-79.318;2023-12-22T04:38:22;1;1;
64138;PMS5003;50435;43.700;-79.318;2023-12-22T04:40:50;1;1;
64138;PMS5003;50435;43.700;-79.318;2023-12-22T04:43:17;1;1;
64138;PMS5003;50435;43.700;-79.318;2023-12-22T04:45:45;1;1;
64138;PMS5003;50435;43.700;-79.318;2023-12-22T04:48:12;3;2;
64138;PMS5003;50435;43.700;-79.318;2023-12-22T04:50:40;3;1;
64138;PMS5003;50435;43.700;-79.318;2023-12-22T04:53:07;1;1;
64138;PMS5003;50435;43.700;-79.318;2023-12-22T04:55:34;1;1;
64138;PMS5003;50435;43.700;-79.318;2023-12-22T04:58:02;1;1;
64138;PMS5003;50435;43.700;-79.318;2023-12-22T05:00:29;1;1;
64138;PMS5003;50435;43.700;-79.318;2023-12-22T05:02:57;3;3;
64138;PMS5003;50435;43.700;-79.318;2023-12-22T05:05:24;1;1;
64138;PMS5003;50435;43.700;-79.318;2023-12-22T05:07:52;1;1;
64138;PMS5003;50435;43.700;-79.318;2023-12-22T05:10:19;0;0;
64138;PMS5003;50435;43.700;-79.318;2023-12-22T05:12:47;3;2;
64138;PMS5003;50435;43.700;-79.318;2023-12-22T05:15:14;1;1;
64138;PMS5003;50435;43.700;-79.318;2023-12-22T05:17:42;1;1;
64138;PMS5003;50435;43.700;-79.318;2023-12-22T05:20:09;2;2;
64138;PMS5003;50435;43.700;-79.318;2023-12-22T05:22:37;1;1;
64138;PMS5003;50435;43.700;-79.318;2023-12-22T05:25:05;1;1;
64138;PMS5003;50435;43.700;-79.318;2023-12-22T05:27:33;2;1;
64138;PMS5003;50435;43.700;-79.318;2023-12-22T05:30:01;2;2;
64138;PMS5003;50435;43.700;-79.318;2023-12-22T05:32:29;0;0;
64138;PMS5003;50435;43.700;-79.318;2023-12-22T05:34:56;0;0;
64138;PMS5003;50435;43.700;-79.318;2023-12-22T05:37:24;1;1;
64138;PMS5003;50435;43.700;-79.318;2023-12-22T05:39:51;1;1;
64138;PMS5003;50435;43.700;-79.318;2023-12-22T05:42:18;1;1;
64138;PMS5003;50435;43.700;-79.318;2023-12-22T05:44:46;1;1;
64138;PMS5003;50435;43.700;-79.318;2023-12-22T05:47:13;1;1;
64138;PMS5003;50435;43.700;-79.318;2023-12-22T05:49:41;2;2;
64138;PMS5003;50435;43.700;-79.318;2023-12-22T05:52:08;3;2;
64138;PMS5003;50435;43.700;-79.318;2023-12-22T05:54:37;1;1;
64138;PMS5003;50435;43.700;-79.318;2023-12-22T05:57:05;2;1;
64138;PMS5003;50435;43.700;-79.318;2023-12-22T05:59:33;1;1;
64138;PMS5003;50435;43.700;-79.318;2023-12-22T06:02:00;3;0;
64138;PMS5003;50435;43.700;-79.318;2023-12-22T06:04:28;2;0;
64138;PMS5003;50435;43.700;-79.318;2023-12-22T06:06:56;2;2;
64138;PMS5003;50435;43.700;-79.318;2023-12-22T06:09:23;0;0;
64138;PMS5003;50435;43.700;-79.318;2023-12-22T06:11:50;1;1;
64138;PMS5003;50435;43.700;-79.318;2023-12-22T06:14:18;1;1;
64138;PMS5003;50435;43.700;-79.318;2023-12-22T06:16:45;3;1;
64138;PMS5003;50435;43.700;-79.318;2023-12-22T06:19:13;2;2;
64138;PMS5003;50435;43.700;-79.318;2023-12-22T06:21:40;2;1;
64138;PMS5003;50435;43.700;-79.318;2023-12-22T06:24:08;3;2;
64138;PMS5003;50435;43.700;-79.318;2023-12-22T06:26:35;1;1;
64138;PMS5003;50435;43.700;-79.318;2023-12-22T06:29:03;1;1;
64138;PMS5003;50435;43.700;-79.318;2023-12-22T06:31:30;1;1;
64138;PMS5003;50435;43.700;-79.318;2023-12-22T06:33:57;2;2;
64138;PMS5003;50435;43.700;-79.318;2023-12-22T06:36:25;0;0;
64138;PMS5003;50435;43.700;-79.318;2023-12-22T06:38:52;2;1;
64138;PMS5003;50435;43.700;-79.318;2023-12-22T06:41:20;2;1;
64138;PMS5003;50435;43.700;-79.318;2023-12-22T06:43:48;2;2;
64138;PMS5003;50435;43.700;-79.318;2023-12-22T06:46:16;2;1;
64138;PMS5003;50435;43.700;-79.318;2023-12-22T06:48:44;1;1;
64138;PMS5003;50435;43.700;-79.318;2023-12-22T06:51:19;2;2;
64138;PMS5003;50435;43.700;-79.318;2023-12-22T06:53:48;1;1;
64138;PMS5003;50435;43.700;-79.318;2023-12-22T06:56:17;2;1;
64138;PMS5003;50435;43.700;-79.318;2023-12-22T06:58:45;1;1;
64138;PMS5003;50435;43.700;-79.318;2023-12-22T07:01:20;2;2;
64138;PMS5003;50435;43.700;-79.318;2023-12-22T07:03:48;2;2;
64138;PMS5003;50435;43.700;-79.318;2023-12-22T07:06:16;3;3;
64138;PMS5003;50435;43.700;-79.318;2023-12-22T07:08:45;3;3;
64138;PMS5003;50435;43.700;-79.318;2023-12-22T07:11:54;2;2;
64138;PMS5003;50435;43.700;-79.318;2023-12-22T07:14:21;3;3;
64138;PMS5003;50435;43.700;-79.318;2023-12-22T07:16:48;1;1;
64138;PMS5003;50435;43.700;-79.318;2023-12-22T07:19:16;1;1;
64138;PMS5003;50435;43.700;-79.318;2023-12-22T07:21:43;1;1;
64138;PMS5003;50435;43.700;-79.318;2023-12-22T07:24:11;2;2;
64138;PMS5003;50435;43.700;-79.318;2023-12-22T07:26:38;2;2;
64138;PMS5003;50435;43.700;-79.318;2023-12-22T07:29:05;2;2;
64138;PMS5003;50435;43.700;-79.318;2023-12-22T07:31:33;1;1;
64138;PMS5003;50435;43.700;-79.318;2023-12-22T07:34:01;3;2;
64138;PMS5003;50435;43.700;-79.318;2023-12-22T07:36:29;3;2;
64138;PMS5003;50435;43.700;-79.318;2023-12-22T07:38:56;3;3;
64138;PMS5003;50435;43.700;-79.318;2023-12-22T07:41:23;1;1;
64138;PMS5003;50435;43.700;-79.318;2023-12-22T07:43:51;3;3;
64138;PMS5003;50435;43.700;-79.318;2023-12-22T07:46:18;2;2;
64138;PMS5003;50435;43.700;-79.318;2023-12-22T07:48:46;1;1;
64138;PMS5003;50435;43.700;-79.318;2023-12-22T07:51:14;2;2;
64138;PMS5003;50435;43.700;-79.318;2023-12-22T07:53:41;2;2;
64138;PMS5003;50435;43.700;-79.318;2023-12-22T07:56:09;2;2;
64138;PMS5003;50435;43.700;-79.318;2023-12-22T07:58:36;2;2;
64138;PMS5003;50435;43.700;-79.318;2023-12-22T08:01:04;5;5;
64138;PMS5003;50435;43.700;-79.318;2023-12-22T08:03:32;1;1;
64138;PMS5003;50435;43.700;-79.318;2023-12-22T08:06:00;5;5;
64138;PMS5003;50435;43.700;-79.318;2023-12-22T08:08:27;3;3;
64138;PMS5003;50435;43.700;-79.318;2023-12-22T08:10:55;3;3;
64138;PMS5003;50435;43.700;-79.318;2023-12-22T08:13:23;3;3;
64138;PMS5003;50435;43.700;-79.318;2023-12-22T08:15:50;5;3;
64138;PMS5003;50435;43.700;-79.318;2023-12-22T08:18:17;5;3;
64138;PMS5003;50435;43.700;-79.318;2023-12-22T08:20:45;1;1;
64138;PMS5003;50435;43.700;-79.318;2023-12-22T08:23:12;2;2;
64138;PMS5003;50435;43.700;-79.318;2023-12-22T08:25:40;1;1;
64138;PMS5003;50435;43.700;-79.318;2023-12-22T08:28:07;2;2;
64138;PMS5003;50435;43.700;-79.318;2023-12-22T08:30:35;3;3;
64138;PMS5003;50435;43.700;-79.318;2023-12-22T08:33:02;5;5;
64138;PMS5003;50435;43.700;-79.318;2023-12-22T08:35:30;5;5;
64138;PMS5003;50435;43.700;-79.318;2023-12-22T08:37:58;5;2;
64138;PMS5003;50435;43.700;-79.318;2023-12-22T08:40:25;2;2;
64138;PMS5003;50435;43.700;-79.318;2023-12-22T08:42:53;2;2;
64138;PMS5003;50435;43.700;-79.318;2023-12-22T08:45:20;6;5;
64138;PMS5003;50435;43.700;-79.318;2023-12-22T08:47:48;3;3;
64138;PMS5003;50435;43.700;-79.318;2023-12-22T08:50:15;3;3;
64138;PMS5003;50435;43.700;-79.318;2023-12-22T08:52:43;3;3;
64138;PMS5003;50435;43.700;-79.318;2023-12-22T08:55:10;5;3;
64138;PMS5003;50435;43.700;-79.318;2023-12-22T08:57:38;3;3;
64138;PMS5003;50435;43.700;-79.318;2023-12-22T09:00:06;5;3;
64138;PMS5003;50435;43.700;-79.318;2023-12-22T09:02:34;5;3;
64138;PMS5003;50435;43.700;-79.318;2023-12-22T09:05:02;3;2;
64138;PMS5003;50435;43.700;-79.318;2023-12-22T09:07:29;3;3;
64138;PMS5003;50435;43.700;-79.318;2023-12-22T09:09:57;3;3;
64138;PMS5003;50435;43.700;-79.318;2023-12-22T09:12:24;2;1;
64138;PMS5003;50435;43.700;-79.318;2023-12-22T09:14:52;3;3;
64138;PMS5003;50435;43.700;-79.318;2023-12-22T09:17:19;2;2;
64138;PMS5003;50435;43.700;-79.318;2023-12-22T09:19:46;5;5;
64138;PMS5003;50435;43.700;-79.318;2023-12-22T09:22:14;3;3;
64138;PMS5003;50435;43.700;-79.318;2023-12-22T09:24:42;2;2;
64138;PMS5003;50435;43.700;-79.318;2023-12-22T09:27:09;5;3;
64138;PMS5003;50435;43.700;-79.318;2023-12-22T09:29:36;5;5;
64138;PMS5003;50435;43.700;-79.318;2023-12-22T09:32:04;5;5;
64138;PMS5003;50435;43.700;-79.318;2023-12-22T09:34:32;6;3;
64138;PMS5003;50435;43.700;-79.318;2023-12-22T09:37:00;3;3;
64138;PMS5003;50435;43.700;-79.318;2023-12-22T09:39:27;3;3;
64138;PMS5003;50435;43.700;-79.318;2023-12-22T09:41:54;5;5;
64138;PMS5003;50435;43.700;-79.318;2023-12-22T09:44:22;5;5;
64138;PMS5003;50435;43.700;-79.318;2023-12-22T09:46:51;6;6;
64138;PMS5003;50435;43.700;-79.318;2023-12-22T09:49:19;2;2;
64138;PMS5003;50435;43.700;-79.318;2023-12-22T09:51:49;5;5;
64138;PMS5003;50435;43.700;-79.318;2023-12-22T09:54:18;3;3;
64138;PMS5003;50435;43.700;-79.318;2023-12-22T09:56:46;8;7;
64138;PMS5003;50435;43.700;-79.318;2023-12-22T09:59:14;3;3;
64138;PMS5003;50435;43.700;-79.318;2023-12-22T10:01:46;5;5;
64138;PMS5003;50435;43.700;-79.318;2023-12-22T10:04:15;5;2;
64138;PMS5003;50435;43.700;-79.318;2023-12-22T10:06:43;2;2;
64138;PMS5003;50435;43.700;-79.318;2023-12-22T10:09:13;7;5;
64138;PMS5003;50435;43.700;-79.318;2023-12-22T10:11:43;3;3;
64138;PMS5003;50435;43.700;-79.318;2023-12-22T10:14:15;7;5;
64138;PMS5003;50435;43.700;-79.318;2023-12-22T10:16:43;3;3;
64138;PMS5003;50435;43.700;-79.318;2023-12-22T10:19:11;5;5;
64138;PMS5003;50435;43.700;-79.318;2023-12-22T10:21:39;5;3;
64138;PMS5003;50435;43.700;-79.318;2023-12-22T10:24:07;6;5;
64138;PMS5003;50435;43.700;-79.318;2023-12-22T10:27:03;5;5;
64138;PMS5003;50435;43.700;-79.318;2023-12-22T10:29:31;3;3;
64138;PMS5003;50435;43.700;-79.318;2023-12-22T10:31:58;3;3;
64138;PMS5003;50435;43.700;-79.318;2023-12-22T10:34:27;5;5;
64138;PMS5003;50435;43.700;-79.318;2023-12-22T10:36:54;5;5;
64138;PMS5003;50435;43.700;-79.318;2023-12-22T10:39:22;5;3;
64138;PMS5003;50435;43.700;-79.318;2023-12-22T10:41:53;7;6;
64138;PMS5003;50435;43.700;-79.318;2023-12-22T10:44:20;5;5;
64138;PMS5003;50435;43.700;-79.318;2023-12-22T10:46:51;5;5;
64138;PMS5003;50435;43.700;-79.318;2023-12-22T10:49:18;11;6;
64138;PMS5003;50435;43.700;-79.318;2023-12-22T10:51:45;5;5;
64138;PMS5003;50435;43.700;-79.318;2023-12-22T10:54:13;5;5;
64138;PMS5003;50435;43.700;-79.318;2023-12-22T10:56:40;5;5;
64138;PMS5003;50435;43.700;-79.318;2023-12-22T10:59:08;3;3;
64138;PMS5003;50435;43.700;-79.318;2023-12-22T11:01:36;5;5;
64138;PMS5003;50435;43.700;-79.318;2023-12-22T11:04:05;5;5;
64138;PMS5003;50435;43.700;-79.318;2023-12-22T11:06:34;5;5;
64138;PMS5003;50435;43.700;-79.318;2023-12-22T11:09:04;5;5;
64138;PMS5003;50435;43.700;-79.318;2023-12-22T11:11:34;6;6;
64138;PMS5003;50435;43.700;-79.318;2023-12-22T11:14:04;7;6;
64138;PMS5003;50435;43.700;-79.318;2023-12-22T11:16:32;6;5;
64138;PMS5003;50435;43.700;-79.318;2023-12-22T11:19:00;6;6;
64138;PMS5003;50435;43.700;-79.318;2023-12-22T11:21:30;3;3;
64138;PMS5003;50435;43.700;-79.318;2023-12-22T11:23:58;5;5;
64138;PMS5003;50435;43.700;-79.318;2023-12-22T11:26:27;6;6;
64138;PMS5003;50435;43.700;-79.318;2023-12-22T11:28:55;3;3;
64138;PMS5003;50435;43.700;-79.318;2023-12-22T11:31:24;3;3;
64138;PMS5003;50435;43.700;-79.318;2023-12-22T11:33:54;5;5;
64138;PMS5003;50435;43.700;-79.318;2023-12-22T11:36:22;7;5;
64138;PMS5003;50435;43.700;-79.318;2023-12-22T11:38:50;7;6;
64138;PMS5003;50435;43.700;-79.318;2023-12-22T11:41:19;7;6;
64138;PMS5003;50435;43.700;-79.318;2023-12-22T11:43:49;7;5;
64138;PMS5003;50435;43.700;-79.318;2023-12-22T11:46:19;5;5;
64138;PMS5003;50435;43.700;-79.318;2023-12-22T11:48:47;8;6;
64138;PMS5003;50435;43.700;-79.318;2023-12-22T11:51:16;8;8;
64138;PMS5003;50435;43.700;-79.318;2023-12-22T11:53:44;8;7;
64138;PMS5003;50435;43.700;-79.318;2023-12-22T11:56:12;6;6;
64138;PMS5003;50435;43.700;-79.318;2023-12-22T11:58:40;6;6;
64138;PMS5003;50435;43.700;-79.318;2023-12-22T12:01:09;7;7;
64138;PMS5003;50435;43.700;-79.318;2023-12-22T12:03:40;7;7;
64138;PMS5003;50435;43.700;-79.318;2023-12-22T12:06:11;10;8;
64138;PMS5003;50435;43.700;-79.318;2023-12-22T12:08:42;6;6;
64138;PMS5003;50435;43.700;-79.318;2023-12-22T12:11:10;5;5;
64138;PMS5003;50435;43.700;-79.318;2023-12-22T12:13:39;7;6;
64138;PMS5003;50435;43.700;-79.318;2023-12-22T12:16:10;5;5;
64138;PMS5003;50435;43.700;-79.318;2023-12-22T12:18:37;5;5;
64138;PMS5003;50435;43.700;-79.318;2023-12-22T12:21:06;10;10;
64138;PMS5003;50435;43.700;-79.318;2023-12-22T12:23:34;5;5;
64138;PMS5003;50435;43.700;-79.318;2023-12-22T12:26:03;7;7;
64138;PMS5003;50435;43.700;-79.318;2023-12-22T12:28:33;5;5;
64138;PMS5003;50435;43.700;-79.318;2023-12-22T12:31:04;7;6;
64138;PMS5003;50435;43.700;-79.318;2023-12-22T12:33:33;6;6;
64138;PMS5003;50435;43.700;-79.318;2023-12-22T12:36:03;6;6;
64138;PMS5003;50435;43.700;-79.318;2023-12-22T12:38:36;7;7;
64138;PMS5003;50435;43.700;-79.318;2023-12-22T12:41:15;6;6;
64138;PMS5003;50435;43.700;-79.318;2023-12-22T12:43:43;6;6;
64138;PMS5003;50435;43.700;-79.318;2023-12-22T12:46:12;7;6;
64138;PMS5003;50435;43.700;-79.318;2023-12-22T12:48:39;6;5;
64138;PMS5003;50435;43.700;-79.318;2023-12-22T12:51:07;7;7;
64138;PMS5003;50435;43.700;-79.318;2023-12-22T12:53:36;10;8;
64138;PMS5003;50435;43.700;-79.318;2023-12-22T12:56:04;11;7;
64138;PMS5003;50435;43.700;-79.318;2023-12-22T12:58:32;8;8;
64138;PMS5003;50435;43.700;-79.318;2023-12-22T13:01:07;6;6;
64138;PMS5003;50435;43.700;-79.318;2023-12-22T13:03:50;6;6;
64138;PMS5003;50435;43.700;-79.318;2023-12-22T13:06:19;8;8;
64138;PMS5003;50435;43.700;-79.318;2023-12-22T13:08:47;11;11;
64138;PMS5003;50435;43.700;-79.318;2023-12-22T13:11:15;6;6;
64138;PMS5003;50435;43.700;-79.318;2023-12-22T13:13:46;10;7;
64138;PMS5003;50435;43.700;-79.318;2023-12-22T13:16:17;8;7;
64138;PMS5003;50435;43.700;-79.318;2023-12-22T13:18:45;7;7;
64138;PMS5003;50435;43.700;-79.318;2023-12-22T13:21:12;7;7;
64138;PMS5003;50435;43.700;-79.318;2023-12-22T13:23:41;3;3;
64138;PMS5003;50435;43.700;-79.318;2023-12-22T13:26:17;12;8;
64138;PMS5003;50435;43.700;-79.318;2023-12-22T13:28:45;8;7;
64138;PMS5003;50435;43.700;-79.318;2023-12-22T13:31:13;7;7;
64138;PMS5003;50435;43.700;-79.318;2023-12-22T13:33:41;7;6;
64138;PMS5003;50435;43.700;-79.318;2023-12-22T13:36:08;8;8;
64138;PMS5003;50435;43.700;-79.318;2023-12-22T13:38:36;7;6;
64138;PMS5003;50435;43.700;-79.318;2023-12-22T13:41:03;5;5;
64138;PMS5003;50435;43.700;-79.318;2023-12-22T13:43:34;10;7;
64138;PMS5003;50435;43.700;-79.318;2023-12-22T13:46:02;6;6;
64138;PMS5003;50435;43.700;-79.318;2023-12-22T13:48:30;5;5;
64138;PMS5003;50435;43.700;-79.318;2023-12-22T13:50:57;8;6;
64138;PMS5003;50435;43.700;-79.318;2023-12-22T13:53:26;7;6;
64138;PMS5003;50435;43.700;-79.318;2023-12-22T13:55:54;7;5;
64138;PMS5003;50435;43.700;-79.318;2023-12-22T13:58:22;5;5;
64138;PMS5003;50435;43.700;-79.318;2023-12-22T14:00:50;6;5;
64138;PMS5003;50435;43.700;-79.318;2023-12-22T14:03:18;8;7;
64138;PMS5003;50435;43.700;-79.318;2023-12-22T14:05:45;6;6;
64138;PMS5003;50435;43.700;-79.318;2023-12-22T14:08:13;5;5;
64138;PMS5003;50435;43.700;-79.318;2023-12-22T14:10:44;5;5;
64138;PMS5003;50435;43.700;-79.318;2023-12-22T14:13:12;5;5;
64138;PMS5003;50435;43.700;-79.318;2023-12-22T14:15:41;6;6;
64138;PMS5003;50435;43.700;-79.318;2023-12-22T14:18:09;5;3;
64138;PMS5003;50435;43.700;-79.318;2023-12-22T14:20:36;6;5;
64138;PMS5003;50435;43.700;-79.318;2023-12-22T14:23:04;6;6;
64138;PMS5003;50435;43.700;-79.318;2023-12-22T14:25:31;5;5;
64138;PMS5003;50435;43.700;-79.318;2023-12-22T14:27:59;5;5;
64138;PMS5003;50435;43.700;-79.318;2023-12-22T14:30:26;8;6;
64138;PMS5003;50435;43.700;-79.318;2023-12-22T14:32:53;7;6;
64138;PMS5003;50435;43.700;-79.318;2023-12-22T14:35:21;6;6;
64138;PMS5003;50435;43.700;-79.318;2023-12-22T14:37:48;5;5;
64138;PMS5003;50435;43.700;-79.318;2023-12-22T14:40:16;5;3;
64138;PMS5003;50435;43.700;-79.318;2023-12-22T14:42:43;6;6;
64138;PMS5003;50435;43.700;-79.318;2023-12-22T14:45:11;5;5;
64138;PMS5003;50435;43.700;-79.318;2023-12-22T14:47:38;7;7;
64138;PMS5003;50435;43.700;-79.318;2023-12-22T14:50:06;5;5;
64138;PMS5003;50435;43.700;-79.318;2023-12-22T14:52:34;7;5;
64138;PMS5003;50435;43.700;-79.318;2023-12-22T14:55:02;7;7;
64138;PMS5003;50435;43.700;-79.318;2023-12-22T14:57:30;8;6;
64138;PMS5003;50435;43.700;-79.318;2023-12-22T14:59:58;7;6;
64138;PMS5003;50435;43.700;-79.318;2023-12-22T15:02:26;10;7;
64138;PMS5003;50435;43.700;-79.318;2023-12-22T15:04:53;6;6;
64138;PMS5003;50435;43.700;-79.318;2023-12-22T15:07:20;6;6;
64138;PMS5003;50435;43.700;-79.318;2023-12-22T15:09:48;5;5;
64138;PMS5003;50435;43.700;-79.318;2023-12-22T15:12:15;6;5;
64138;PMS5003;50435;43.700;-79.318;2023-12-22T15:14:43;6;6;
64138;PMS5003;50435;43.700;-79.318;2023-12-22T15:17:11;6;6;
64138;PMS5003;50435;43.700;-79.318;2023-12-22T15:19:39;5;5;
64138;PMS5003;50435;43.700;-79.318;2023-12-22T15:22:07;7;7;
64138;PMS5003;50435;43.700;-79.318;2023-12-22T15:24:34;3;3;
64138;PMS5003;50435;43.700;-79.318;2023-12-22T15:27:02;7;7;
64138;PMS5003;50435;43.700;-79.318;2023-12-22T15:29:29;6;6;
64138;PMS5003;50435;43.700;-79.318;2023-12-22T15:31:56;6;5;
64138;PMS5003;50435;43.700;-79.318;2023-12-22T15:34:23;6;6;
64138;PMS5003;50435;43.700;-79.318;2023-12-22T15:36:51;5;5;
64138;PMS5003;50435;43.700;-79.318;2023-12-22T15:39:18;6;6;
64138;PMS5003;50435;43.700;-79.318;2023-12-22T15:41:46;5;5;
64138;PMS5003;50435;43.700;-79.318;2023-12-22T15:44:13;7;7;
64138;PMS5003;50435;43.700;-79.318;2023-12-22T15:46:41;13;8;
64138;PMS5003;50435;43.700;-79.318;2023-12-22T15:49:08;10;6;
64138;PMS5003;50435;43.700;-79.318;2023-12-22T15:51:35;7;7;
64138;PMS5003;50435;43.700;-79.318;2023-12-22T15:54:03;8;7;
64138;PMS5003;50435;43.700;-79.318;2023-12-22T15:56:30;7;7;
64138;PMS5003;50435;43.700;-79.318;2023-12-22T15:58:57;7;7;
64138;PMS5003;50435;43.700;-79.318;2023-12-22T16:01:25;8;8;
64138;PMS5003;50435;43.700;-79.318;2023-12-22T16:03:52;7;7;
64138;PMS5003;50435;43.700;-79.318;2023-12-22T16:06:19;6;6;
64138;PMS5003;50435;43.700;-79.318;2023-12-22T16:08:47;16;13;
64138;PMS5003;50435;43.700;-79.318;2023-12-22T16:11:14;10;6;
64138;PMS5003;50435;43.700;-79.318;2023-12-22T16:13:45;6;6;
64138;PMS5003;50435;43.700;-79.318;2023-12-22T16:16:17;8;8;
64138;PMS5003;50435;43.700;-79.318;2023-12-22T16:18:45;9;7;
64138;PMS5003;50435;43.700;-79.318;2023-12-22T16:21:12;8;7;
64138;PMS5003;50435;43.700;-79.318;2023-12-22T16:23:40;11;11;